AAL203 KSAN-KSLC
Flight info
| Callsign | AAL203 |
|---|---|
| Flight time | N/A |
| Altitude | 39000 |
| Route | MTBAL DCT CABIC Q73 WINEN DCT MLF |
| Aircraft | B77W/H-SDE1E2E3FGHIJ2J3J4J5M1RWXY/LB1D1 |
Departure
| Time | N/A |
|---|---|
| Airport | San Diego International Airport (KSAN) |
Arrival
| Time | 2026-05-05 19:18 |
|---|---|
| Airport | Salt Lake City International Airport (KSLC) |
| Time | Latitude | Longitude | Altitude | Speed | Heading |
|---|---|---|---|---|---|
| 2026-05-05 18:42 | 37.70918 | -113.55413 | 38835 ft | 488 kts | 10° |
| 2026-05-05 18:42 | 37.74249 | -113.54611 | 38849 ft | 487 kts | 10° |
| 2026-05-05 18:42 | 37.80898 | -113.53007 | 38826 ft | 486 kts | 10° |
| 2026-05-05 18:43 | 37.87524 | -113.51407 | 38828 ft | 483 kts | 10° |
| 2026-05-05 18:43 | 37.93834 | -113.48605 | 38827 ft | 482 kts | 28° |
| 2026-05-05 18:44 | 37.99196 | -113.43641 | 38828 ft | 481 kts | 41° |
| 2026-05-05 18:44 | 38.04138 | -113.37892 | 38821 ft | 483 kts | 42° |
| 2026-05-05 18:45 | 38.09107 | -113.32127 | 38816 ft | 484 kts | 41° |
| 2026-05-05 18:45 | 38.14123 | -113.26394 | 38821 ft | 485 kts | 41° |
| 2026-05-05 18:46 | 38.19154 | -113.20662 | 38854 ft | 486 kts | 41° |
| 2026-05-05 18:46 | 38.24180 | -113.14921 | 38881 ft | 485 kts | 41° |
| 2026-05-05 18:47 | 38.29196 | -113.09178 | 38908 ft | 485 kts | 41° |
| 2026-05-05 18:47 | 38.34209 | -113.03425 | 38943 ft | 486 kts | 41° |
| 2026-05-05 18:48 | 38.36853 | -113.00743 | 38936 ft | 486 kts | 29° |
| 2026-05-05 18:48 | 38.39895 | -112.98914 | 38961 ft | 483 kts | 21° |
| 2026-05-05 18:48 | 38.46195 | -112.95759 | 38948 ft | 489 kts | 20° |
| 2026-05-05 18:49 | 38.52531 | -112.92532 | 38934 ft | 491 kts | 21° |
| 2026-05-05 18:49 | 38.58806 | -112.89206 | 38885 ft | 485 kts | 21° |
| 2026-05-05 18:50 | 38.64975 | -112.85890 | 38846 ft | 476 kts | 22° |
| 2026-05-05 18:50 | 38.71040 | -112.82631 | 38786 ft | 471 kts | 21° |
| 2026-05-05 18:51 | 38.77120 | -112.79364 | 38807 ft | 477 kts | 22° |
| 2026-05-05 18:51 | 38.83297 | -112.76036 | 38789 ft | 485 kts | 21° |
| 2026-05-05 18:52 | 38.89484 | -112.72699 | 38789 ft | 483 kts | 22° |
| 2026-05-05 18:52 | 38.95624 | -112.69378 | 38776 ft | 475 kts | 21° |
| 2026-05-05 18:53 | 39.01713 | -112.66085 | 38778 ft | 474 kts | 21° |
| 2026-05-05 18:53 | 39.07784 | -112.62793 | 38781 ft | 473 kts | 22° |
| 2026-05-05 18:54 | 39.13845 | -112.59496 | 38784 ft | 472 kts | 22° |
| 2026-05-05 18:54 | 39.19896 | -112.56197 | 38777 ft | 471 kts | 22° |
| 2026-05-05 18:55 | 39.25929 | -112.52907 | 38779 ft | 470 kts | 22° |
| 2026-05-05 18:55 | 39.31971 | -112.49738 | 38609 ft | 463 kts | 17° |
| 2026-05-05 18:56 | 39.35035 | -112.48602 | 38403 ft | 453 kts | 14° |
| 2026-05-05 18:56 | 39.38098 | -112.47654 | 37706 ft | 453 kts | 13° |
| 2026-05-05 18:56 | 39.41179 | -112.46750 | 36922 ft | 455 kts | 13° |
| 2026-05-05 18:56 | 39.44261 | -112.45828 | 36260 ft | 454 kts | 14° |
| 2026-05-05 18:57 | 39.47326 | -112.44865 | 35581 ft | 453 kts | 14° |
| 2026-05-05 18:57 | 39.50376 | -112.43880 | 34961 ft | 451 kts | 15° |
| 2026-05-05 18:57 | 39.53404 | -112.42885 | 34424 ft | 447 kts | 15° |
| 2026-05-05 18:57 | 39.56395 | -112.41890 | 33983 ft | 439 kts | 16° |
| 2026-05-05 18:58 | 39.59310 | -112.40917 | 33709 ft | 427 kts | 16° |
| 2026-05-05 18:58 | 39.62152 | -112.39965 | 32748 ft | 429 kts | 16° |
| 2026-05-05 18:58 | 39.65087 | -112.38980 | 31314 ft | 443 kts | 15° |
| 2026-05-05 18:58 | 39.68110 | -112.37967 | 30199 ft | 452 kts | 15° |
| 2026-05-05 18:59 | 39.71155 | -112.36949 | 29416 ft | 450 kts | 15° |
| 2026-05-05 18:59 | 39.74169 | -112.35942 | 28789 ft | 444 kts | 15° |
| 2026-05-05 18:59 | 39.77139 | -112.34948 | 28269 ft | 437 kts | 15° |
| 2026-05-05 18:59 | 39.80060 | -112.33969 | 27684 ft | 431 kts | 14° |
| 2026-05-05 19:00 | 39.82952 | -112.32998 | 27051 ft | 427 kts | 15° |
| 2026-05-05 19:00 | 39.85824 | -112.32034 | 26376 ft | 425 kts | 15° |
| 2026-05-05 19:00 | 39.88684 | -112.31073 | 25720 ft | 424 kts | 15° |
| 2026-05-05 19:00 | 39.91530 | -112.30115 | 25087 ft | 422 kts | 15° |
| 2026-05-05 19:01 | 39.94367 | -112.29160 | 24491 ft | 419 kts | 15° |
| 2026-05-05 19:01 | 39.97188 | -112.28209 | 23933 ft | 417 kts | 15° |
| 2026-05-05 19:01 | 39.99987 | -112.27265 | 23383 ft | 415 kts | 14° |
| 2026-05-05 19:01 | 40.02778 | -112.26323 | 22723 ft | 413 kts | 14° |
| 2026-05-05 19:02 | 40.05551 | -112.25386 | 22141 ft | 410 kts | 14° |
| 2026-05-05 19:02 | 40.08295 | -112.24458 | 21625 ft | 405 kts | 14° |
| 2026-05-05 19:02 | 40.11014 | -112.23538 | 21105 ft | 401 kts | 14° |
| 2026-05-05 19:02 | 40.13708 | -112.22626 | 20571 ft | 398 kts | 14° |
| 2026-05-05 19:03 | 40.16378 | -112.21721 | 20039 ft | 395 kts | 14° |
| 2026-05-05 19:03 | 40.19030 | -112.20821 | 19524 ft | 392 kts | 14° |
| 2026-05-05 19:03 | 40.21661 | -112.19928 | 19011 ft | 389 kts | 14° |
| 2026-05-05 19:03 | 40.24274 | -112.19040 | 18493 ft | 387 kts | 14° |
| 2026-05-05 19:04 | 40.26874 | -112.18156 | 17972 ft | 384 kts | 14° |
| 2026-05-05 19:04 | 40.29454 | -112.17277 | 17445 ft | 381 kts | 14° |
| 2026-05-05 19:04 | 40.32006 | -112.16408 | 16958 ft | 377 kts | 14° |
| 2026-05-05 19:04 | 40.34540 | -112.15544 | 16478 ft | 374 kts | 14° |
| 2026-05-05 19:05 | 40.37015 | -112.14700 | 15982 ft | 371 kts | 14° |
| 2026-05-05 19:05 | 40.39503 | -112.13850 | 15501 ft | 368 kts | 14° |
| 2026-05-05 19:05 | 40.41968 | -112.13008 | 15040 ft | 365 kts | 14° |
| 2026-05-05 19:05 | 40.44445 | -112.12161 | 14656 ft | 359 kts | 14° |
| 2026-05-05 19:06 | 40.46846 | -112.11336 | 14202 ft | 356 kts | 13° |
| 2026-05-05 19:06 | 40.49171 | -112.10542 | 14082 ft | 343 kts | 13° |
| 2026-05-05 19:06 | 40.51467 | -112.09754 | 13829 ft | 335 kts | 13° |
| 2026-05-05 19:06 | 40.53681 | -112.09064 | 13700 ft | 319 kts | 6° |
| 2026-05-05 19:07 | 40.55845 | -112.09127 | 13584 ft | 305 kts | 352° |
| 2026-05-05 19:07 | 40.57250 | -112.09389 | 13510 ft | 298 kts | 351° |
| 2026-05-05 19:07 | 40.59895 | -112.09915 | 13374 ft | 283 kts | 351° |
| 2026-05-05 19:07 | 40.61834 | -112.10306 | 13024 ft | 282 kts | 351° |
| 2026-05-05 19:08 | 40.63775 | -112.10699 | 12640 ft | 282 kts | 351° |
| 2026-05-05 19:08 | 40.65723 | -112.11012 | 12251 ft | 283 kts | 353° |
| 2026-05-05 19:08 | 40.67680 | -112.11261 | 11873 ft | 282 kts | 353° |
| 2026-05-05 19:08 | 40.69639 | -112.11492 | 11541 ft | 281 kts | 354° |
| 2026-05-05 19:09 | 40.71573 | -112.11714 | 11293 ft | 276 kts | 354° |
| 2026-05-05 19:09 | 40.73473 | -112.11925 | 11025 ft | 272 kts | 354° |
| 2026-05-05 19:09 | 40.75341 | -112.12126 | 10788 ft | 267 kts | 354° |
| 2026-05-05 19:09 | 40.77179 | -112.12314 | 10537 ft | 263 kts | 353° |
| 2026-05-05 19:10 | 40.78987 | -112.12493 | 10331 ft | 258 kts | 354° |
| 2026-05-05 19:10 | 40.80769 | -112.12662 | 10102 ft | 256 kts | 354° |
| 2026-05-05 19:10 | 40.82538 | -112.12829 | 9878 ft | 253 kts | 353° |
| 2026-05-05 19:10 | 40.84285 | -112.12983 | 9661 ft | 250 kts | 353° |
| 2026-05-05 19:11 | 40.86003 | -112.13152 | 9474 ft | 247 kts | 354° |
| 2026-05-05 19:11 | 40.87162 | -112.13257 | 9358 ft | 248 kts | 354° |
| 2026-05-05 19:11 | 40.88872 | -112.13415 | 9185 ft | 251 kts | 354° |
| 2026-05-05 19:11 | 40.90595 | -112.13572 | 9000 ft | 244 kts | 354° |
| 2026-05-05 19:12 | 40.92255 | -112.13699 | 8846 ft | 233 kts | 358° |
| 2026-05-05 19:12 | 40.93812 | -112.13382 | 8677 ft | 223 kts | 22° |
| 2026-05-05 19:12 | 40.94963 | -112.12065 | 8340 ft | 219 kts | 52° |
| 2026-05-05 19:12 | 40.95732 | -112.10366 | 8034 ft | 213 kts | 60° |
| 2026-05-05 19:13 | 40.96352 | -112.08648 | 7774 ft | 197 kts | 70° |
| 2026-05-05 19:13 | 40.96594 | -112.06978 | 7487 ft | 177 kts | 89° |
| 2026-05-05 19:13 | 40.96413 | -112.05377 | 7304 ft | 175 kts | 109° |
| 2026-05-05 19:13 | 40.95912 | -112.03937 | 7113 ft | 171 kts | 124° |
| 2026-05-05 19:14 | 40.95187 | -112.02740 | 7018 ft | 164 kts | 141° |
| 2026-05-05 19:14 | 40.94262 | -112.01868 | 6834 ft | 163 kts | 156° |
| 2026-05-05 19:14 | 40.93215 | -112.01274 | 6684 ft | 164 kts | 165° |
| 2026-05-05 19:14 | 40.92116 | -112.00984 | 6508 ft | 158 kts | 179° |
| 2026-05-05 19:15 | 40.91048 | -112.00907 | 6251 ft | 150 kts | 178° |
| 2026-05-05 19:15 | 40.90025 | -112.00833 | 6054 ft | 143 kts | 179° |
| 2026-05-05 19:15 | 40.89044 | -112.00768 | 5835 ft | 140 kts | 179° |
| 2026-05-05 19:15 | 40.88076 | -112.00698 | 5670 ft | 138 kts | 180° |
| 2026-05-05 19:16 | 40.87101 | -112.00614 | 5445 ft | 147 kts | 179° |
| 2026-05-05 19:16 | 40.86081 | -112.00515 | 5258 ft | 149 kts | 177° |
| 2026-05-05 19:16 | 40.85065 | -112.00406 | 5199 ft | 147 kts | 176° |
| 2026-05-05 19:16 | 40.84032 | -112.00292 | 4934 ft | 150 kts | 175° |
| 2026-05-05 19:17 | 40.82998 | -112.00173 | 4742 ft | 148 kts | 175° |
| 2026-05-05 19:17 | 40.81975 | -112.00054 | 4535 ft | 149 kts | 177° |
| 2026-05-05 19:17 | 40.80969 | -111.99947 | 4350 ft | 140 kts | 176° |
| 2026-05-05 19:17 | 40.80043 | -111.99842 | 4237 ft | 123 kts | 175° |
| 2026-05-05 19:18 | 40.79328 | -111.99762 | 4233 ft | 73 kts | 174° |
| 2026-05-05 19:18 | 40.78871 | -111.99706 | 4239 ft | 51 kts | 175° |
| 2026-05-05 19:18 | 40.78605 | -111.99656 | 4239 ft | 34 kts | 165° |
| 2026-05-05 19:18 | 40.78457 | -111.99534 | 4235 ft | 13 kts | 128° |
| 2026-05-05 19:19 | 40.78442 | -111.99502 | 4235 ft | 0 kts | 120° |
| 2026-05-05 19:19 | 40.78441 | -111.99502 | 4235 ft | 1 kts | 120° |
| 2026-05-05 19:20 | 40.78422 | -111.99424 | 4236 ft | 11 kts | 94° |
| 2026-05-05 19:20 | 40.78412 | -111.99320 | 4236 ft | 11 kts | 99° |
| 2026-05-05 19:20 | 40.78412 | -111.99219 | 4235 ft | 8 kts | 86° |
| 2026-05-05 19:20 | 40.78431 | -111.99164 | 4236 ft | 5 kts | 26° |
| 2026-05-05 19:21 | 40.78457 | -111.99166 | 4236 ft | 0 kts | 354° |